Terminal Aerodrome Forecast
Issued by NWS Sioux Falls, SD

Home | Current Version | Previous Version | Text Only | Print | Product List | Glossary Off
Versions: 1 2 3 4 5 6 7 8 9 10 11 12 13 14 15 16

000
FTUS43 KFSD 241133
TAFHON
TAF
KHON 241133Z 2412/2512 04011G18KT 6SM -SHRA OVC050
     FM241500 03015G23KT P6SM -SHRA SCT020 OVC035
      TEMPO 2416/2420 6SM -SHRA OVC020
     FM242100 02013KT P6SM VCSH OVC040
     FM250000 36009KT P6SM OVC080
     FM250600 33004KT P6SM SCT120=

USA.gov is the U.S. government's official web portal to all federal, state and local government web resources and services.